createdAt,value
2017-12-23T00:00:43.760Z,23.93
2017-12-23T00:03:12.031Z,26.17
2017-12-23T00:05:40.298Z,29.63
2017-12-23T00:08:08.663Z,19.97
2017-12-23T00:10:36.971Z,17.57
2017-12-23T00:13:05.222Z,19.20
2017-12-23T00:15:33.517Z,20.17
2017-12-23T00:18:01.752Z,19.10
2017-12-23T00:20:30.027Z,20.07
2017-12-23T00:22:58.283Z,25.07
2017-12-23T00:25:27.326Z,35.53
2017-12-23T00:27:55.618Z,49.63
2017-12-23T00:30:23.895Z,55.73
2017-12-23T00:32:52.182Z,44.87
2017-12-23T00:35:20.458Z,90.17
2017-12-23T00:37:48.750Z,39.17
2017-12-23T00:40:17.043Z,47.37
2017-12-23T00:42:45.296Z,58.13
2017-12-23T00:45:14.510Z,46.97
2017-12-23T00:47:42.763Z,23.07
2017-12-23T00:50:11.788Z,48.23
2017-12-23T00:52:40.081Z,32.73
2017-12-23T00:55:08.353Z,27.40
2017-12-23T00:57:36.608Z,38.63
2017-12-23T01:00:05.651Z,28.40
2017-12-23T01:02:33.914Z,25.27
2017-12-23T01:05:02.204Z,26.60
2017-12-23T01:07:30.455Z,21.73
2017-12-23T01:09:59.587Z,25.30
2017-12-23T01:12:27.872Z,28.43
2017-12-23T01:14:56.249Z,37.43
2017-12-23T01:17:24.530Z,23.33
2017-12-23T01:19:52.860Z,46.20
2017-12-23T01:22:21.117Z,33.10
2017-12-23T01:24:49.395Z,34.27
2017-12-23T01:27:17.665Z,48.73
2017-12-23T01:29:45.914Z,24.47
2017-12-23T01:32:14.971Z,44.00
2017-12-23T01:34:43.223Z,32.37
2017-12-23T01:37:11.565Z,37.70
2017-12-23T01:39:39.832Z,48.57
2017-12-23T01:42:08.098Z,36.67
2017-12-23T01:44:36.350Z,49.93
2017-12-23T01:47:04.620Z,44.50
2017-12-23T01:49:32.871Z,37.60
2017-12-23T01:52:01.130Z,37.17
2017-12-23T01:54:29.371Z,35.83
2017-12-23T01:56:57.662Z,29.67
2017-12-23T01:59:25.949Z,34.60
2017-12-23T02:01:54.231Z,27.70
2017-12-23T02:04:22.522Z,21.93
2017-12-23T02:06:50.770Z,30.67
2017-12-23T02:09:19.018Z,29.00
2017-12-23T02:11:48.040Z,30.73
2017-12-23T02:14:16.320Z,43.77
2017-12-23T02:16:44.566Z,46.47
2017-12-23T02:19:12.838Z,23.33
2017-12-23T02:21:42.602Z,20.70
2017-12-23T02:24:10.884Z,29.17
2017-12-23T02:26:39.881Z,34.40
2017-12-23T02:29:08.146Z,30.17
2017-12-23T02:31:37.171Z,45.73
2017-12-23T02:34:05.474Z,36.60
2017-12-23T02:36:33.760Z,51.43
2017-12-23T02:39:02.054Z,37.57
2017-12-23T02:41:30.306Z,47.43
2017-12-23T02:43:58.571Z,47.77
2017-12-23T02:46:26.829Z,49.37
2017-12-23T02:48:55.889Z,46.13
2017-12-23T02:51:24.163Z,45.13
2017-12-23T02:53:52.531Z,57.53
2017-12-23T02:56:20.802Z,51.20
2017-12-23T02:58:49.080Z,44.30
2017-12-23T03:01:17.344Z,47.27
2017-12-23T03:03:46.389Z,25.90
2017-12-23T03:06:14.652Z,36.13
2017-12-23T03:08:42.922Z,30.17
2017-12-23T03:11:11.186Z,25.43
2017-12-23T03:13:40.234Z,16.23
2017-12-23T03:16:08.487Z,20.60
2017-12-23T03:18:36.750Z,21.73
2017-12-23T03:21:05.781Z,25.83
2017-12-23T03:23:34.037Z,29.37
2017-12-23T03:26:02.358Z,17.73
2017-12-23T03:28:30.615Z,29.50
2017-12-23T03:30:58.928Z,24.77
2017-12-23T03:33:27.169Z,26.10
2017-12-23T03:35:55.440Z,19.70
2017-12-23T03:38:24.458Z,20.33
2017-12-23T03:40:52.722Z,21.90
2017-12-23T03:43:20.973Z,24.40
2017-12-23T03:45:49.801Z,22.83
2017-12-23T03:48:18.109Z,18.60
2017-12-23T03:50:46.396Z,18.70
2017-12-23T03:53:14.648Z,20.97
2017-12-23T03:55:42.901Z,23.50
2017-12-23T03:58:11.927Z,16.20
2017-12-23T04:00:40.199Z,15.20
2017-12-23T04:03:09.542Z,16.67
2017-12-23T04:05:37.814Z,16.50
2017-12-23T04:08:06.068Z,11.50
2017-12-23T04:10:34.341Z,18.17
2017-12-23T04:13:03.358Z,12.60
2017-12-23T04:15:38.306Z,17.10
2017-12-23T04:18:06.594Z,15.50
2017-12-23T04:20:34.855Z,16.10
2017-12-23T04:23:03.102Z,20.50
2017-12-23T04:25:31.384Z,18.10
2017-12-23T04:27:59.929Z,15.23
2017-12-23T04:30:28.176Z,21.50
2017-12-23T04:32:56.434Z,15.20
2017-12-23T04:35:24.700Z,15.67
2017-12-23T04:37:53.056Z,16.90
2017-12-23T04:40:21.296Z,20.60
2017-12-23T04:42:50.337Z,13.37
2017-12-23T04:45:18.584Z,15.03
2017-12-23T04:47:46.869Z,14.63
2017-12-23T04:50:15.185Z,20.20
2017-12-23T04:52:43.443Z,15.90
2017-12-23T04:55:11.699Z,20.23
2017-12-23T04:57:39.976Z,20.90
2017-12-23T05:00:09.002Z,28.27
2017-12-23T05:02:37.285Z,31.13
2017-12-23T05:05:05.573Z,29.33
2017-12-23T05:07:33.946Z,20.10
2017-12-23T05:10:02.196Z,23.30
2017-12-23T05:12:31.330Z,18.40
2017-12-23T05:14:59.586Z,16.10
2017-12-23T05:17:27.874Z,17.50
2017-12-23T05:19:56.130Z,21.10
2017-12-23T05:22:25.163Z,19.50
2017-12-23T05:24:53.456Z,20.23
2017-12-23T05:27:21.728Z,14.90
2017-12-23T05:29:49.986Z,13.87
2017-12-23T05:32:18.290Z,14.20
2017-12-23T05:34:46.543Z,14.93
2017-12-23T05:37:14.968Z,16.90
2017-12-23T05:39:43.221Z,13.67
2017-12-23T05:42:11.511Z,14.93
2017-12-23T05:44:39.769Z,13.23
2017-12-23T05:47:08.023Z,12.17
2017-12-23T05:49:36.358Z,12.27
2017-12-23T05:52:04.616Z,13.83
2017-12-23T05:54:32.923Z,12.10
2017-12-23T05:57:01.206Z,12.50
2017-12-23T05:59:29.474Z,11.77
2017-12-23T06:01:57.718Z,10.60
2017-12-23T06:04:27.037Z,10.73
2017-12-23T06:06:56.048Z,10.40
2017-12-23T06:09:24.316Z,11.40
2017-12-23T06:11:52.571Z,13.63
2017-12-23T06:14:20.913Z,10.57
2017-12-23T06:16:49.183Z,10.90
2017-12-23T06:19:17.446Z,10.17
2017-12-23T06:21:47.079Z,12.07
2017-12-23T06:24:15.357Z,11.17
2017-12-23T06:26:43.647Z,11.03
2017-12-23T06:29:11.938Z,11.93
2017-12-23T06:31:40.182Z,10.33
2017-12-23T06:34:10.242Z,14.60
2017-12-23T06:36:38.514Z,12.57
2017-12-23T06:39:06.798Z,12.37
2017-12-23T06:41:35.042Z,11.43
2017-12-23T06:44:03.302Z,9.50
2017-12-23T06:46:31.602Z,9.83
2017-12-23T06:48:59.811Z,13.27
2017-12-23T06:51:28.071Z,10.17
2017-12-23T06:53:56.322Z,12.50
2017-12-23T06:56:24.667Z,11.73
2017-12-23T06:58:52.916Z,9.93
2017-12-23T07:01:21.183Z,9.40
2017-12-23T07:03:49.454Z,12.53
2017-12-23T07:06:18.508Z,11.10
2017-12-23T07:08:46.764Z,10.90
2017-12-23T07:11:15.058Z,12.87
2017-12-23T07:13:43.379Z,13.20
2017-12-23T07:16:11.628Z,14.57
2017-12-23T07:18:39.919Z,12.50
2017-12-23T07:21:08.196Z,14.50
2017-12-23T07:23:36.497Z,14.20
2017-12-23T07:26:04.754Z,15.90
2017-12-23T07:28:33.001Z,14.80
2017-12-23T07:31:01.279Z,15.30
2017-12-23T07:33:29.532Z,15.27
2017-12-23T07:35:58.565Z,15.63
2017-12-23T07:38:26.869Z,13.97
2017-12-23T07:40:55.144Z,16.43
2017-12-23T07:43:23.429Z,15.00
2017-12-23T07:45:51.890Z,13.77
2017-12-23T07:48:20.154Z,13.53
2017-12-23T07:50:49.184Z,14.57
2017-12-23T07:53:17.448Z,15.17
2017-12-23T07:55:45.700Z,15.73
2017-12-23T07:58:14.745Z,14.03
2017-12-23T08:00:42.996Z,16.27
2017-12-23T08:03:12.040Z,14.80
2017-12-23T08:05:40.315Z,16.20
2017-12-23T08:08:08.592Z,13.73
2017-12-23T08:10:36.887Z,11.87
2017-12-23T08:13:05.146Z,11.27
2017-12-23T08:15:34.177Z,11.40
2017-12-23T08:18:02.430Z,11.23
2017-12-23T08:20:30.673Z,11.30
2017-12-23T08:22:59.713Z,10.33
2017-12-23T08:25:28.961Z,11.37
2017-12-23T08:27:57.929Z,11.33
2017-12-23T08:30:26.179Z,10.57
2017-12-23T08:32:54.447Z,12.70
2017-12-23T08:35:23.487Z,7.00
2017-12-23T08:37:51.767Z,7.47
2017-12-23T08:40:20.081Z,6.60
2017-12-23T08:42:48.316Z,8.13
2017-12-23T08:45:16.569Z,7.80
2017-12-23T08:47:45.599Z,9.50
2017-12-23T08:50:13.842Z,8.00
2017-12-23T08:52:42.882Z,8.20
2017-12-23T08:55:11.131Z,6.87
2017-12-23T08:57:40.198Z,7.13
2017-12-23T09:00:08.476Z,6.33
2017-12-23T09:02:36.712Z,9.63
2017-12-23T09:05:05.382Z,8.60
2017-12-23T09:07:34.394Z,8.57
2017-12-23T09:10:02.648Z,9.07
2017-12-23T09:12:30.886Z,7.70
2017-12-23T09:14:59.161Z,7.30
2017-12-23T09:17:27.458Z,7.17
2017-12-23T09:19:55.829Z,5.73
2017-12-23T09:22:24.065Z,6.27
2017-12-23T09:24:52.331Z,6.20
2017-12-23T09:27:20.584Z,7.83
2017-12-23T09:29:48.848Z,8.03
2017-12-23T09:32:17.085Z,6.97
2017-12-23T09:34:46.240Z,7.63
2017-12-23T09:37:14.486Z,8.43
2017-12-23T09:39:43.533Z,8.67
2017-12-23T09:42:11.786Z,8.00
2017-12-23T09:44:40.072Z,8.27
2017-12-23T09:47:08.353Z,8.20
2017-12-23T09:49:36.631Z,7.53
2017-12-23T09:52:04.874Z,8.03
2017-12-23T09:54:33.175Z,5.20
2017-12-23T09:57:02.905Z,6.83
2017-12-23T09:59:31.947Z,6.50
2017-12-23T10:02:00.249Z,5.13
2017-12-23T10:04:28.491Z,4.87
2017-12-23T10:06:56.726Z,4.90
2017-12-23T10:09:25.758Z,6.03
2017-12-23T10:11:53.997Z,4.83
2017-12-23T10:14:22.245Z,5.53
2017-12-23T10:16:50.553Z,6.47
2017-12-23T10:19:18.918Z,8.13
2017-12-23T10:21:47.205Z,5.00
2017-12-23T10:24:15.471Z,6.43
2017-12-23T10:26:43.729Z,7.37
2017-12-23T10:29:11.979Z,6.17
2017-12-23T10:31:41.810Z,7.30
2017-12-23T10:34:10.871Z,7.13
2017-12-23T10:36:39.242Z,7.50
2017-12-23T10:39:07.514Z,9.00
2017-12-23T10:41:35.774Z,6.23
2017-12-23T10:44:04.060Z,6.50
2017-12-23T10:46:32.314Z,6.80
2017-12-23T10:49:01.333Z,8.17
2017-12-23T10:51:29.587Z,11.10
2017-12-23T10:53:58.606Z,8.97
2017-12-23T10:56:27.130Z,8.40
2017-12-23T10:58:55.399Z,7.57
2017-12-23T11:01:23.683Z,9.00
2017-12-23T11:03:51.993Z,9.27
2017-12-23T11:06:20.236Z,9.77
2017-12-23T11:08:48.528Z,8.63
2017-12-23T11:11:16.798Z,9.00
2017-12-23T11:13:45.033Z,6.70
2017-12-23T11:16:13.280Z,8.87
2017-12-23T11:18:41.531Z,9.20
2017-12-23T11:21:09.842Z,7.40
2017-12-23T11:23:38.117Z,8.47
2017-12-23T11:26:06.367Z,9.60
2017-12-23T11:28:35.413Z,10.70
2017-12-23T11:31:03.709Z,12.07
2017-12-23T11:33:31.934Z,7.53
2017-12-23T11:36:00.186Z,10.47
2017-12-23T11:38:29.218Z,9.37
2017-12-23T11:40:57.463Z,7.27
2017-12-23T11:43:26.531Z,12.10
2017-12-23T11:45:54.768Z,9.80
2017-12-23T11:48:23.022Z,10.67
2017-12-23T11:50:52.054Z,12.00
2017-12-23T11:53:20.316Z,10.33
2017-12-23T11:55:48.748Z,11.47
2017-12-23T11:58:17.008Z,10.27
2017-12-23T12:00:45.277Z,9.83
2017-12-23T12:03:13.585Z,9.47
2017-12-23T12:05:41.842Z,9.93
2017-12-23T12:08:10.145Z,12.03
2017-12-23T12:10:38.395Z,10.10
2017-12-23T12:13:06.709Z,10.13
2017-12-23T12:15:34.943Z,9.70
2017-12-23T12:18:03.978Z,10.43
2017-12-23T12:20:32.219Z,9.07
2017-12-23T12:23:01.241Z,11.70
2017-12-23T12:25:30.446Z,6.90
2017-12-23T12:27:58.698Z,7.23
2017-12-23T12:30:27.727Z,9.83
2017-12-23T12:32:56.018Z,9.33
2017-12-23T12:35:24.298Z,9.70
2017-12-23T12:37:52.558Z,10.90
2017-12-23T12:40:20.839Z,9.77
2017-12-23T12:42:49.089Z,8.70
2017-12-23T12:45:17.420Z,12.23
2017-12-23T12:47:45.702Z,8.13
2017-12-23T12:50:13.978Z,9.53
2017-12-23T12:52:42.235Z,8.77
2017-12-23T12:55:10.494Z,7.57
2017-12-23T12:57:40.252Z,12.27
2017-12-23T13:00:08.545Z,9.23
2017-12-23T13:02:36.834Z,10.03
2017-12-23T13:05:05.106Z,11.00
2017-12-23T13:07:33.377Z,10.33
2017-12-23T13:10:01.663Z,13.73
2017-12-23T13:12:29.894Z,12.07
2017-12-23T13:14:58.931Z,9.40
2017-12-23T13:17:27.235Z,9.33
2017-12-23T13:19:55.537Z,10.60
2017-12-23T13:22:23.768Z,13.00
2017-12-23T13:24:52.038Z,12.60
2017-12-23T13:27:20.850Z,8.67
2017-12-23T13:29:49.172Z,10.93
2017-12-23T13:32:17.413Z,11.60
2017-12-23T13:34:45.670Z,11.13
2017-12-23T13:37:13.950Z,9.47
2017-12-23T13:39:42.210Z,9.90
2017-12-23T13:42:11.248Z,9.03
2017-12-23T13:44:39.496Z,9.63
2017-12-23T13:47:08.639Z,9.87
2017-12-23T13:49:36.888Z,9.53
2017-12-23T13:52:05.158Z,8.47
2017-12-23T13:54:34.166Z,10.30
2017-12-23T13:57:02.440Z,8.10
2017-12-23T13:59:31.466Z,11.43
2017-12-23T14:01:59.732Z,8.90
2017-12-23T14:04:27.984Z,9.77
2017-12-23T14:06:56.260Z,9.87
2017-12-23T14:09:24.500Z,9.73
2017-12-23T14:11:52.787Z,7.63
2017-12-23T14:14:21.037Z,7.17
2017-12-23T14:16:49.291Z,8.83
2017-12-23T14:19:17.536Z,8.67
2017-12-23T14:21:45.840Z,8.07
2017-12-23T14:24:14.065Z,8.77
2017-12-23T14:26:42.323Z,8.30
2017-12-23T14:29:11.338Z,11.47
2017-12-23T14:31:39.616Z,8.57
2017-12-23T14:34:08.652Z,7.80
2017-12-23T14:36:37.221Z,8.23
2017-12-23T14:39:06.214Z,7.10
2017-12-23T14:41:34.548Z,6.43
2017-12-23T14:44:02.787Z,5.70
2017-12-23T14:46:31.188Z,6.30
2017-12-23T14:48:59.479Z,6.90
2017-12-23T14:51:28.652Z,7.60
2017-12-23T14:53:56.906Z,6.57
2017-12-23T14:56:25.924Z,6.03
2017-12-23T14:58:54.222Z,5.07
2017-12-23T15:01:22.467Z,6.07
2017-12-23T15:03:51.497Z,5.83
2017-12-23T15:06:19.786Z,7.20
2017-12-23T15:08:48.039Z,5.87
2017-12-23T15:11:17.042Z,7.90
2017-12-23T15:13:45.370Z,5.50
2017-12-23T15:16:13.609Z,5.60
2017-12-23T15:18:41.872Z,5.53
2017-12-23T15:21:10.887Z,4.27
2017-12-23T15:23:39.151Z,4.50
2017-12-23T15:26:08.168Z,4.20
2017-12-23T15:28:36.445Z,6.50
2017-12-23T15:31:04.725Z,4.43
2017-12-23T15:33:33.034Z,7.90
2017-12-23T15:36:01.343Z,5.40
2017-12-23T15:38:29.628Z,5.90
2017-12-23T15:40:57.830Z,6.70
2017-12-23T15:43:26.903Z,8.53
2017-12-23T15:45:55.141Z,6.33
2017-12-23T15:48:23.383Z,6.30
2017-12-23T15:50:52.404Z,6.40
2017-12-23T15:53:21.412Z,6.27
2017-12-23T15:55:49.670Z,5.93
2017-12-23T15:58:18.673Z,5.90
2017-12-23T16:00:47.711Z,7.50
2017-12-23T16:03:15.994Z,9.60
2017-12-23T16:05:44.279Z,7.33
2017-12-23T16:08:12.517Z,7.63
2017-12-23T16:10:41.538Z,8.87
2017-12-23T16:13:09.822Z,9.53
2017-12-23T16:15:38.116Z,9.17
2017-12-23T16:18:06.370Z,7.10
2017-12-23T16:20:34.623Z,5.67
2017-12-23T16:23:03.657Z,8.47
2017-12-23T16:25:31.919Z,9.10
2017-12-23T16:28:00.238Z,6.93
2017-12-23T16:30:28.504Z,5.20
2017-12-23T16:32:56.743Z,6.43
2017-12-23T16:35:25.792Z,7.03
2017-12-23T16:37:54.041Z,5.70
2017-12-23T16:40:23.058Z,7.50
2017-12-23T16:42:51.303Z,6.60
2017-12-23T16:45:19.568Z,5.93
2017-12-23T16:47:47.819Z,6.90
2017-12-23T16:50:16.081Z,8.27
2017-12-23T16:52:44.322Z,8.00
2017-12-23T16:55:13.359Z,8.87
2017-12-23T16:57:41.654Z,6.87
2017-12-23T17:00:09.894Z,6.43
2017-12-23T17:02:39.030Z,7.37
2017-12-23T17:05:07.282Z,7.60
2017-12-23T17:07:36.315Z,6.30
2017-12-23T17:10:04.584Z,11.30
2017-12-23T17:12:32.883Z,6.43
2017-12-23T17:15:02.756Z,5.00
2017-12-23T17:17:31.834Z,6.07
2017-12-23T17:20:00.084Z,5.20
2017-12-23T17:22:28.347Z,7.07
2017-12-23T17:24:56.605Z,7.60
2017-12-23T17:27:24.922Z,9.20
2017-12-23T17:30:05.078Z,8.57
2017-12-23T17:32:33.347Z,5.70
2017-12-23T17:35:01.585Z,7.20
2017-12-23T17:37:29.841Z,7.00
2017-12-23T17:39:58.111Z,8.50
2017-12-23T17:42:26.367Z,5.63
2017-12-23T17:44:54.612Z,7.13
2017-12-23T17:47:23.635Z,5.90
2017-12-23T17:49:51.930Z,6.07
2017-12-23T17:52:20.183Z,5.50
2017-12-23T17:54:49.200Z,6.70
2017-12-23T17:57:17.458Z,8.90
2017-12-23T17:59:46.468Z,5.87
2017-12-23T18:02:15.627Z,6.00
2017-12-23T18:04:43.911Z,4.93
2017-12-23T18:07:12.184Z,6.03
2017-12-23T18:09:40.426Z,5.37
2017-12-23T18:12:08.688Z,5.60
2017-12-23T18:14:37.705Z,4.97
2017-12-23T18:17:06.002Z,5.27
2017-12-23T18:19:34.286Z,5.53
2017-12-23T18:22:02.539Z,5.57
2017-12-23T18:24:31.566Z,5.97
2017-12-23T18:26:59.813Z,5.13
2017-12-23T18:29:28.853Z,5.80
2017-12-23T18:31:57.133Z,6.63
2017-12-23T18:34:25.401Z,5.17
2017-12-23T18:36:53.665Z,4.53
2017-12-23T18:39:22.699Z,6.93
2017-12-23T18:41:50.947Z,4.17
2017-12-23T18:44:19.206Z,5.00
2017-12-23T18:46:48.218Z,4.67
2017-12-23T18:49:17.259Z,6.47
2017-12-23T18:51:45.493Z,6.63
2017-12-23T18:54:14.546Z,4.50
2017-12-23T18:56:42.786Z,4.40
2017-12-23T18:59:11.048Z,4.20
2017-12-23T19:01:40.052Z,5.53
2017-12-23T19:04:09.116Z,4.40
2017-12-23T19:06:37.358Z,5.87
2017-12-23T19:09:05.643Z,3.90
2017-12-23T19:11:33.908Z,3.27
2017-12-23T19:14:02.208Z,4.60
2017-12-23T19:16:42.563Z,4.70
2017-12-23T19:19:10.830Z,3.97
2017-12-23T19:21:39.082Z,3.93
2017-12-23T19:24:07.428Z,3.33
2017-12-23T19:26:35.674Z,4.03
2017-12-23T19:29:03.985Z,5.93
2017-12-23T19:31:32.375Z,3.57
2017-12-23T19:34:00.644Z,4.67
2017-12-23T19:36:28.940Z,3.40
2017-12-23T19:38:57.153Z,4.03
2017-12-23T19:41:25.410Z,5.40
2017-12-23T19:43:53.666Z,3.60
2017-12-23T19:46:21.943Z,3.30
2017-12-23T19:48:50.956Z,3.23
2017-12-23T19:51:19.224Z,3.90
2017-12-23T19:53:47.481Z,3.70
2017-12-23T19:56:16.132Z,3.87
2017-12-23T19:58:44.819Z,3.30
2017-12-23T20:01:13.550Z,4.87
2017-12-23T20:03:41.861Z,5.23
2017-12-23T20:06:10.122Z,3.57
2017-12-23T20:08:38.385Z,3.33
2017-12-23T20:11:07.410Z,3.80
2017-12-23T20:13:35.680Z,4.30
2017-12-23T20:16:03.937Z,4.67
2017-12-23T20:18:32.967Z,3.73
2017-12-23T20:21:01.244Z,3.50
2017-12-23T20:23:29.545Z,4.50
2017-12-23T20:25:57.812Z,4.70
2017-12-23T20:28:26.106Z,4.63
2017-12-23T20:30:54.355Z,4.43
2017-12-23T20:33:23.491Z,3.33
2017-12-23T20:35:51.745Z,5.37
2017-12-23T20:38:20.774Z,3.47
2017-12-23T20:40:49.048Z,4.57
2017-12-23T20:43:17.315Z,3.63
2017-12-23T20:45:45.578Z,3.50
2017-12-23T20:48:14.616Z,4.97
2017-12-23T20:50:42.886Z,3.70
2017-12-23T20:53:11.791Z,4.30
2017-12-23T20:55:40.035Z,3.73
2017-12-23T20:58:08.304Z,4.10
2017-12-23T21:00:37.362Z,5.03
2017-12-23T21:03:05.614Z,4.90
2017-12-23T21:05:33.868Z,6.00
2017-12-23T21:08:02.997Z,5.13
2017-12-23T21:10:31.246Z,5.97
2017-12-23T21:13:00.282Z,7.00
2017-12-23T21:15:28.523Z,5.30
2017-12-23T21:17:57.538Z,4.57
2017-12-23T21:20:25.782Z,5.37
2017-12-23T21:22:54.055Z,4.60
2017-12-23T21:25:22.300Z,4.07
2017-12-23T21:27:50.585Z,4.63
2017-12-23T21:30:18.850Z,5.20
2017-12-23T21:32:47.102Z,5.33
2017-12-23T21:35:16.130Z,4.07
2017-12-23T21:37:44.411Z,5.30
2017-12-23T21:40:12.723Z,4.90
2017-12-23T21:42:41.028Z,4.70
2017-12-23T21:45:09.266Z,4.83
2017-12-23T21:47:37.519Z,5.13
2017-12-23T21:50:06.535Z,8.03
2017-12-23T21:52:35.344Z,5.60
2017-12-23T21:55:03.627Z,4.77
2017-12-23T21:57:31.887Z,6.30
2017-12-23T22:00:00.146Z,4.83
2017-12-23T22:02:29.143Z,4.87
2017-12-23T22:04:58.191Z,4.93
2017-12-23T22:07:26.431Z,4.87
2017-12-23T22:09:55.454Z,4.67
2017-12-23T22:12:24.015Z,4.40
2017-12-23T22:14:53.097Z,7.20
2017-12-23T22:17:21.349Z,4.57
2017-12-23T22:19:49.615Z,5.00
2017-12-23T22:22:17.872Z,5.33
2017-12-23T22:24:46.897Z,5.67
2017-12-23T22:27:15.158Z,5.27
2017-12-23T22:29:43.424Z,4.27
2017-12-23T22:32:12.473Z,5.60
2017-12-23T22:34:40.730Z,5.47
2017-12-23T22:37:08.979Z,3.73
2017-12-23T22:39:38.010Z,4.50
2017-12-23T22:42:06.249Z,4.90
2017-12-23T22:44:34.516Z,4.33
2017-12-23T22:47:02.784Z,5.43
2017-12-23T22:49:31.079Z,4.90
2017-12-23T22:51:59.332Z,5.90
2017-12-23T22:54:27.572Z,9.60
2017-12-23T22:56:55.826Z,4.57
2017-12-23T22:59:24.071Z,3.80
2017-12-23T23:01:52.327Z,3.40
2017-12-23T23:04:21.361Z,5.90
2017-12-23T23:06:49.622Z,4.97
2017-12-23T23:09:17.867Z,4.20
2017-12-23T23:11:46.137Z,5.03
2017-12-23T23:14:14.384Z,4.50
2017-12-23T23:16:42.644Z,3.70
2017-12-23T23:19:10.886Z,3.87
2017-12-23T23:21:39.158Z,4.93
2017-12-23T23:24:07.419Z,4.97
2017-12-23T23:26:35.695Z,5.13
2017-12-23T23:29:03.933Z,5.90
2017-12-23T23:31:32.963Z,3.67
2017-12-23T23:34:01.221Z,4.10
2017-12-23T23:36:29.479Z,4.60
2017-12-23T23:38:58.490Z,3.40
2017-12-23T23:41:27.510Z,3.00
2017-12-23T23:43:55.752Z,2.93
2017-12-23T23:46:24.010Z,4.73
2017-12-23T23:48:52.259Z,3.20
2017-12-23T23:51:20.514Z,3.23
2017-12-23T23:53:49.543Z,3.33
2017-12-23T23:56:17.786Z,3.60
2017-12-23T23:58:46.814Z,2.83
